createdAt,value
2019-04-05T00:01:48.382Z,80.97
2019-04-05T00:04:18.431Z,89.87
2019-04-05T00:06:48.387Z,87.60
2019-04-05T00:09:18.373Z,96.80
2019-04-05T00:11:48.592Z,98.10
2019-04-05T00:14:18.567Z,104.83
2019-04-05T00:16:48.523Z,105.00
2019-04-05T00:19:18.499Z,107.17
2019-04-05T00:21:48.459Z,112.00
2019-04-05T00:24:18.439Z,104.57
2019-04-05T00:26:48.600Z,107.90
2019-04-05T00:29:18.583Z,110.10
2019-04-05T00:31:48.535Z,108.23
2019-04-05T00:34:18.506Z,111.43
2019-04-05T00:36:48.462Z,114.03
2019-04-05T00:39:18.515Z,112.67
2019-04-05T00:41:48.471Z,106.73
2019-04-05T00:44:18.452Z,116.50
2019-04-05T00:46:48.414Z,112.43
2019-04-05T00:49:18.473Z,102.30
2019-04-05T00:51:48.428Z,117.23
2019-04-05T00:54:18.483Z,111.40
2019-04-05T00:56:48.439Z,111.47
2019-04-05T00:59:18.419Z,117.13
2019-04-05T01:01:48.377Z,117.40
2019-04-05T01:04:18.351Z,117.53
2019-04-05T01:06:48.306Z,114.87
2019-04-05T01:09:18.300Z,128.83
2019-04-05T01:11:48.494Z,127.63
2019-04-05T01:14:18.917Z,123.50
2019-04-05T01:16:48.940Z,126.23
2019-04-05T01:19:20.460Z,132.43
2019-04-05T01:21:50.419Z,135.80
2019-04-05T01:24:20.865Z,139.33
2019-04-05T01:26:51.463Z,154.87
2019-04-05T01:29:21.574Z,149.70
2019-04-05T01:31:52.503Z,142.57
2019-04-05T01:34:23.450Z,146.90
2019-04-05T01:36:53.418Z,150.57
2019-04-05T01:39:23.395Z,146.17
2019-04-05T01:41:53.351Z,140.90
2019-04-05T01:44:23.391Z,152.53
2019-04-05T01:46:54.593Z,151.03
2019-04-05T01:49:24.567Z,151.70
2019-04-05T01:51:54.794Z,149.63
2019-04-05T01:54:24.847Z,152.23
2019-04-05T01:56:54.795Z,147.67
2019-04-05T01:59:24.827Z,149.27
2019-04-05T02:01:54.807Z,155.37
2019-04-05T02:04:24.858Z,153.10
2019-04-05T02:06:54.874Z,163.50
2019-04-05T02:09:24.891Z,159.73
2019-04-05T02:11:55.020Z,156.87
2019-04-05T02:14:25.068Z,168.07
2019-04-05T02:16:55.019Z,164.83
2019-04-05T02:19:25.066Z,161.53
2019-04-05T02:21:55.023Z,150.57
2019-04-05T02:24:25.068Z,154.63
2019-04-05T02:26:55.024Z,163.00
2019-04-05T02:29:25.005Z,155.17
2019-04-05T02:31:54.963Z,163.73
2019-04-05T02:34:24.940Z,168.17
2019-04-05T02:36:54.895Z,174.63
2019-04-05T02:39:24.871Z,165.87
2019-04-05T02:41:56.867Z,171.13
2019-04-05T02:44:27.490Z,161.80
2019-04-05T02:46:57.586Z,163.97
2019-04-05T02:49:31.010Z,172.23
2019-04-05T02:52:02.743Z,173.57
2019-04-05T02:54:34.242Z,172.43
2019-04-05T02:57:04.936Z,180.90
2019-04-05T02:59:35.249Z,162.17
2019-04-05T03:02:05.474Z,170.03
2019-04-05T03:04:36.001Z,175.80
2019-04-05T03:07:06.392Z,172.30
2019-04-05T03:09:37.008Z,169.53
2019-04-05T03:12:07.513Z,171.77
2019-04-05T03:14:38.430Z,172.17
2019-04-05T03:17:09.831Z,173.90
2019-04-05T03:19:41.195Z,176.37
2019-04-05T03:22:13.599Z,171.57
2019-04-05T03:24:46.238Z,178.70
2019-04-05T03:27:19.273Z,166.83
2019-04-05T03:29:50.015Z,174.13
2019-04-05T03:32:20.035Z,163.13
2019-04-05T03:34:50.383Z,171.93
2019-04-05T03:37:20.975Z,172.07
2019-04-05T03:39:51.500Z,174.90
2019-04-05T03:42:21.859Z,162.13
2019-04-05T03:44:52.216Z,158.73
2019-04-05T03:47:22.126Z,151.93
2019-04-05T03:49:52.354Z,149.57
2019-04-05T03:52:22.657Z,147.53
2019-04-05T03:54:53.195Z,152.23
2019-04-05T03:57:23.781Z,144.87
2019-04-05T03:59:53.826Z,140.20
2019-04-05T04:02:23.976Z,138.57
2019-04-05T04:04:54.711Z,143.90
2019-04-05T04:07:24.671Z,150.83
2019-04-05T04:09:54.809Z,151.80
2019-04-05T04:12:25.094Z,150.20
2019-04-05T04:14:58.735Z,140.73
2019-04-05T04:17:29.120Z,160.67
2019-04-05T04:19:59.158Z,161.40
2019-04-05T04:22:30.062Z,147.80
2019-04-05T04:25:00.361Z,157.50
2019-04-05T04:27:30.973Z,148.53
2019-04-05T04:30:01.800Z,152.60
2019-04-05T04:32:31.817Z,161.60
2019-04-05T04:35:02.650Z,151.17
2019-04-05T04:37:33.043Z,168.43
2019-04-05T04:40:04.161Z,161.70
2019-04-05T04:42:34.349Z,153.00
2019-04-05T04:45:11.996Z,168.23
2019-04-05T04:47:37.401Z,169.70
2019-04-05T04:50:08.287Z,163.43
2019-04-05T04:52:38.582Z,163.27
2019-04-05T04:55:09.696Z,161.47
2019-04-05T04:57:39.910Z,168.90
2019-04-05T05:00:10.222Z,161.37
2019-04-05T05:02:40.813Z,165.50
2019-04-05T05:05:12.306Z,175.93
2019-04-05T05:07:42.614Z,172.53
2019-04-05T05:10:12.838Z,179.43
2019-04-05T05:13:02.146Z,169.67
2019-04-05T05:15:32.396Z,183.27
2019-04-05T05:18:02.823Z,170.90
2019-04-05T05:20:32.935Z,185.30
2019-04-05T05:23:03.059Z,179.43
2019-04-05T05:25:34.069Z,181.07
2019-04-05T05:28:04.258Z,170.37
2019-04-05T05:30:34.681Z,178.43
2019-04-05T05:33:04.966Z,169.57
2019-04-05T05:35:35.114Z,182.50
2019-04-05T05:38:05.230Z,176.20
2019-04-05T05:40:35.672Z,181.83
2019-04-05T05:43:05.698Z,174.87
2019-04-05T05:45:35.666Z,174.57
2019-04-05T05:48:05.763Z,176.33
2019-04-05T05:50:36.375Z,182.33
2019-04-05T05:53:06.394Z,186.17
2019-04-05T05:55:36.450Z,181.80
2019-04-05T05:58:06.393Z,177.30
2019-04-05T06:00:36.366Z,177.30
2019-04-05T06:03:06.537Z,185.10
2019-04-05T06:05:37.198Z,173.13
2019-04-05T06:08:07.239Z,172.30
2019-04-05T06:10:37.201Z,180.27
2019-04-05T06:13:07.852Z,167.80
2019-04-05T06:15:37.839Z,183.87
2019-04-05T06:18:09.862Z,174.50
2019-04-05T06:20:39.400Z,173.80
2019-04-05T06:23:09.354Z,171.77
2019-04-05T06:25:39.381Z,174.17
2019-04-05T06:28:09.354Z,157.07
2019-04-05T06:30:39.309Z,171.20
2019-04-05T06:33:09.282Z,163.90
2019-04-05T06:35:39.236Z,162.23
2019-04-05T06:38:09.214Z,168.70
2019-04-05T06:40:41.016Z,165.27
2019-04-05T06:43:10.754Z,162.30
2019-04-05T06:45:40.748Z,159.97
2019-04-05T06:48:18.904Z,153.57
2019-04-05T06:50:42.257Z,153.13
2019-04-05T06:53:12.234Z,154.57
2019-04-05T06:55:42.177Z,156.60
2019-04-05T06:58:19.617Z,146.23
2019-04-05T07:00:56.440Z,152.53
2019-04-05T07:03:15.411Z,150.10
2019-04-05T07:05:45.507Z,152.77
2019-04-05T07:08:18.202Z,140.37
2019-04-05T07:10:47.055Z,144.77
2019-04-05T07:13:17.027Z,146.27
2019-04-05T07:15:46.977Z,146.33
2019-04-05T07:18:16.962Z,143.47
2019-04-05T07:20:46.895Z,137.83
2019-04-05T07:23:16.875Z,142.90
2019-04-05T07:25:46.826Z,137.43
2019-04-05T07:28:16.926Z,138.50
2019-04-05T07:30:46.925Z,157.03
2019-04-05T07:33:16.872Z,150.03
2019-04-05T07:35:46.830Z,152.53
2019-04-05T07:38:16.816Z,151.60
2019-04-05T07:40:46.782Z,145.13
2019-04-05T07:43:16.786Z,138.73
2019-04-05T07:45:46.747Z,135.90
2019-04-05T07:48:16.726Z,154.17
2019-04-05T07:50:46.687Z,142.90
2019-04-05T07:53:16.668Z,149.13
2019-04-05T07:55:46.621Z,152.67
2019-04-05T07:58:16.601Z,153.43
2019-04-05T08:00:52.403Z,146.70
2019-04-05T08:03:23.330Z,149.00
2019-04-05T08:05:54.526Z,137.77
2019-04-05T08:08:30.175Z,138.87
2019-04-05T08:11:00.378Z,147.97
2019-04-05T08:13:31.551Z,154.50
2019-04-05T08:16:01.739Z,152.80
2019-04-05T08:18:31.793Z,154.10
2019-04-05T08:21:01.768Z,147.23
2019-04-05T08:23:31.780Z,149.30
2019-04-05T08:26:01.750Z,146.43
2019-04-05T08:28:32.817Z,139.67
2019-04-05T08:31:02.782Z,144.63
2019-04-05T08:33:32.868Z,137.57
2019-04-05T08:36:03.866Z,140.53
2019-04-05T08:38:33.988Z,129.87
2019-04-05T08:41:03.950Z,133.93
2019-04-05T08:43:33.955Z,139.67
2019-04-05T08:46:03.934Z,142.13
2019-04-05T08:48:33.919Z,134.70
2019-04-05T08:51:04.035Z,135.47
2019-04-05T08:53:34.023Z,127.50
2019-04-05T08:56:04.053Z,133.67
2019-04-05T08:58:34.040Z,141.47
2019-04-05T09:01:04.352Z,134.97
2019-04-05T09:03:34.335Z,133.40
2019-04-05T09:06:04.397Z,133.90
2019-04-05T09:08:34.438Z,141.87
2019-04-05T09:11:04.399Z,136.07
2019-04-05T09:13:34.378Z,130.00
2019-04-05T09:16:04.338Z,128.17
2019-04-05T09:18:34.319Z,121.07
2019-04-05T09:21:04.415Z,131.63
2019-04-05T09:23:35.462Z,128.27
2019-04-05T09:26:05.595Z,131.17
2019-04-05T09:28:35.580Z,126.23
2019-04-05T09:31:05.534Z,128.80
2019-04-05T09:33:35.522Z,127.40
2019-04-05T09:36:05.716Z,117.67
2019-04-05T09:38:35.694Z,124.17
2019-04-05T09:41:05.722Z,119.13
2019-04-05T09:43:35.710Z,122.80
2019-04-05T09:46:05.837Z,116.77
2019-04-05T09:48:35.813Z,120.50
2019-04-05T09:51:07.119Z,115.47
2019-04-05T09:53:37.323Z,114.77
2019-04-05T09:56:07.307Z,121.20
2019-04-05T09:58:37.666Z,119.53
2019-04-05T10:01:07.756Z,112.80
2019-04-05T10:03:37.742Z,119.17
2019-04-05T10:06:07.879Z,104.90
2019-04-05T10:08:37.937Z,110.37
2019-04-05T10:11:07.898Z,116.00
2019-04-05T10:13:37.882Z,106.43
2019-04-05T10:16:07.837Z,111.27
2019-04-05T10:18:37.828Z,125.07
2019-04-05T10:21:07.782Z,115.60
2019-04-05T10:23:37.839Z,115.87
2019-04-05T10:26:07.938Z,109.53
2019-04-05T10:28:37.983Z,111.33
2019-04-05T10:31:07.966Z,113.57
2019-04-05T10:33:38.021Z,108.00
2019-04-05T10:36:07.979Z,113.03
2019-04-05T10:38:38.046Z,101.73
2019-04-05T10:41:08.178Z,101.93
2019-04-05T10:43:38.187Z,106.30
2019-04-05T10:46:08.179Z,101.57
2019-04-05T10:48:38.158Z,116.37
2019-04-05T10:51:08.130Z,102.57
2019-04-05T10:53:38.176Z,110.53
2019-04-05T10:56:08.083Z,98.23
2019-04-05T10:58:38.137Z,106.97
2019-04-05T11:01:08.182Z,106.03
2019-04-05T11:03:38.162Z,97.77
2019-04-05T11:06:08.123Z,97.37
2019-04-05T11:08:38.097Z,105.40
2019-04-05T11:11:08.058Z,97.00
2019-04-05T11:13:38.114Z,104.37
2019-04-05T11:16:08.075Z,106.90
2019-04-05T11:18:38.065Z,96.77
2019-04-05T11:21:08.019Z,100.23
2019-04-05T11:23:38.004Z,102.10
2019-04-05T11:26:07.958Z,95.50
2019-04-05T11:28:37.934Z,100.13
2019-04-05T11:31:07.968Z,96.47
2019-04-05T11:33:37.938Z,94.60
2019-04-05T11:36:08.434Z,86.17
2019-04-05T11:38:38.883Z,85.87
2019-04-05T11:41:08.970Z,85.93
2019-04-05T11:43:40.395Z,81.13
2019-04-05T11:46:10.410Z,80.53
2019-04-05T11:48:41.335Z,74.17
2019-04-05T11:51:12.590Z,80.00
2019-04-05T11:53:42.570Z,71.30
2019-04-05T11:56:14.775Z,69.40
2019-04-05T11:58:48.531Z,84.57
2019-04-05T12:01:23.137Z,76.00
2019-04-05T12:03:51.850Z,82.23
2019-04-05T12:06:21.806Z,83.13
2019-04-05T12:08:51.801Z,84.77
2019-04-05T12:11:21.799Z,87.23
2019-04-05T12:13:51.775Z,79.37
2019-04-05T12:16:21.723Z,77.03
2019-04-05T12:18:51.703Z,78.73
2019-04-05T12:21:21.662Z,76.87
2019-04-05T12:23:51.635Z,82.87
2019-04-05T12:26:21.586Z,80.23
2019-04-05T12:28:51.563Z,96.67
2019-04-05T12:31:22.290Z,80.57
2019-04-05T12:33:52.520Z,87.30
2019-04-05T12:36:22.752Z,88.13
2019-04-05T12:38:54.347Z,83.80
2019-04-05T12:41:24.418Z,86.33
2019-04-05T12:43:54.415Z,85.70
2019-04-05T12:46:24.374Z,86.37
2019-04-05T12:48:54.357Z,77.30
2019-04-05T12:51:24.315Z,81.27
2019-04-05T12:53:56.480Z,84.03
2019-04-05T12:56:26.526Z,75.93
2019-04-05T12:58:57.158Z,83.70
2019-04-05T13:01:27.110Z,87.57
2019-04-05T13:03:58.666Z,82.43
2019-04-05T13:06:28.844Z,80.90
2019-04-05T13:08:58.907Z,75.07
2019-04-05T13:11:28.850Z,80.20
2019-04-05T13:13:58.839Z,82.73
2019-04-05T13:16:29.486Z,83.80
2019-04-05T13:19:00.867Z,74.47
2019-04-05T13:21:33.037Z,79.50
2019-04-05T13:24:04.248Z,74.90
2019-04-05T13:26:36.657Z,76.33
2019-04-05T13:29:05.878Z,69.80
2019-04-05T13:31:35.868Z,68.13
2019-04-05T13:34:06.204Z,69.93
2019-04-05T13:36:36.299Z,69.00
2019-04-05T13:39:07.587Z,71.00
2019-04-05T13:41:37.613Z,65.37
2019-04-05T13:44:07.560Z,65.53
2019-04-05T13:46:39.043Z,69.27
2019-04-05T13:49:10.995Z,63.10
2019-04-05T13:51:42.124Z,64.77
2019-04-05T13:54:12.746Z,59.67
2019-04-05T13:56:42.728Z,57.33
2019-04-05T13:59:12.746Z,57.13
2019-04-05T14:01:42.796Z,57.73
2019-04-05T14:04:12.778Z,59.37
2019-04-05T14:06:42.816Z,58.73
2019-04-05T14:09:15.529Z,60.97
2019-04-05T14:11:44.908Z,59.67
2019-04-05T14:14:14.865Z,53.37
2019-04-05T14:16:44.843Z,54.97
2019-04-05T14:19:18.385Z,56.90
2019-04-05T14:21:47.817Z,49.80
2019-04-05T14:24:17.901Z,55.23
2019-04-05T14:26:47.878Z,51.77
2019-04-05T14:29:17.922Z,49.43
2019-04-05T14:31:47.947Z,46.53
2019-04-05T14:34:17.842Z,55.17
2019-04-05T14:36:47.821Z,50.20
2019-04-05T14:39:18.742Z,45.63
2019-04-05T14:41:48.713Z,50.63
2019-04-05T14:44:18.680Z,51.00
2019-04-05T14:46:48.645Z,47.17
2019-04-05T14:49:18.603Z,44.50
2019-04-05T14:51:55.040Z,45.13
2019-04-05T14:54:20.227Z,42.57
2019-04-05T14:56:50.220Z,43.53
2019-04-05T14:59:20.141Z,43.30
2019-04-05T15:01:50.113Z,45.77
2019-04-05T15:04:20.139Z,43.30
2019-04-05T15:06:50.611Z,46.30
2019-04-05T15:09:23.688Z,40.00
2019-04-05T15:11:53.462Z,43.07
2019-04-05T15:14:23.414Z,38.40
2019-04-05T15:16:53.454Z,41.20
2019-04-05T15:19:23.442Z,37.80
2019-04-05T15:22:04.847Z,36.33
2019-04-05T15:24:25.022Z,38.37
2019-04-05T15:26:55.018Z,33.20
2019-04-05T15:29:26.115Z,33.77
2019-04-05T15:31:57.018Z,35.97
2019-04-05T15:34:28.480Z,38.40
2019-04-05T15:36:59.377Z,35.73
2019-04-05T15:39:30.791Z,34.97
2019-04-05T15:42:01.330Z,33.93
2019-04-05T15:44:31.287Z,33.90
2019-04-05T15:47:01.346Z,36.97
2019-04-05T15:49:31.302Z,37.87
2019-04-05T15:52:01.286Z,37.07
2019-04-05T15:54:33.205Z,38.60
2019-04-05T15:57:03.757Z,38.03
2019-04-05T15:59:34.413Z,29.20
2019-04-05T16:02:04.452Z,28.00
2019-04-05T16:04:35.513Z,32.77
2019-04-05T16:07:05.587Z,31.87
2019-04-05T16:09:35.578Z,27.10
2019-04-05T16:12:05.962Z,33.77
2019-04-05T16:14:36.022Z,32.33
2019-04-05T16:17:06.265Z,27.97
2019-04-05T16:19:36.258Z,29.13
2019-04-05T16:22:06.315Z,31.63
2019-04-05T16:24:36.372Z,31.67
2019-04-05T16:27:06.310Z,26.10
2019-04-05T16:29:36.262Z,26.13
2019-04-05T16:32:06.237Z,30.63
2019-04-05T16:34:36.187Z,27.33
2019-04-05T16:37:06.339Z,25.13
2019-04-05T16:39:36.300Z,33.80
2019-04-05T16:42:06.271Z,35.13
2019-04-05T16:44:36.394Z,41.73
2019-04-05T16:47:06.372Z,40.60
2019-04-05T16:49:36.318Z,45.67
2019-04-05T16:52:06.362Z,44.90
2019-04-05T16:54:36.313Z,48.43
2019-04-05T16:57:06.359Z,48.73
2019-04-05T16:59:36.322Z,44.23
2019-04-05T17:02:06.298Z,49.90
2019-04-05T17:04:36.844Z,52.07
2019-04-05T17:07:06.878Z,47.13
2019-04-05T17:09:36.831Z,48.27
2019-04-05T17:12:06.803Z,51.80
2019-04-05T17:14:36.966Z,43.60
2019-04-05T17:17:07.294Z,49.93
2019-04-05T17:19:37.922Z,46.80
2019-04-05T17:22:08.276Z,45.03
2019-04-05T17:24:39.010Z,48.07
2019-04-05T17:27:08.990Z,49.27
2019-04-05T17:29:40.067Z,48.20
2019-04-05T17:32:10.374Z,46.33
2019-04-05T17:34:41.117Z,50.20
2019-04-05T17:37:11.162Z,44.90
2019-04-05T17:39:41.258Z,40.37
2019-04-05T17:42:11.443Z,45.37
2019-04-05T17:44:41.710Z,42.83
2019-04-05T17:47:11.725Z,45.70
2019-04-05T17:49:42.219Z,42.57
2019-04-05T17:52:12.206Z,35.87
2019-04-05T17:54:42.445Z,37.23
2019-04-05T17:57:12.674Z,26.37
2019-04-05T17:59:43.621Z,27.30
2019-04-05T18:02:13.849Z,30.90
2019-04-05T18:04:43.841Z,27.00
2019-04-05T18:07:14.027Z,28.37
2019-04-05T18:09:43.942Z,24.20
2019-04-05T18:12:14.004Z,21.30
2019-04-05T18:14:44.222Z,19.90
2019-04-05T18:17:14.475Z,25.20
2019-04-05T18:19:45.518Z,18.97
2019-04-05T18:22:15.463Z,21.23
2019-04-05T18:24:45.663Z,20.10
2019-04-05T18:27:15.630Z,16.27
2019-04-05T18:29:45.577Z,17.37
2019-04-05T18:32:15.679Z,15.07
2019-04-05T18:34:45.728Z,18.50
2019-04-05T18:37:15.678Z,18.47
2019-04-05T18:39:45.658Z,13.80
2019-04-05T18:42:15.842Z,17.00
2019-04-05T18:44:46.026Z,19.40
2019-04-05T18:47:16.123Z,19.13
2019-04-05T18:49:46.144Z,14.43
2019-04-05T18:52:16.106Z,16.20
2019-04-05T18:54:46.057Z,16.03
2019-04-05T18:57:16.199Z,20.17
2019-04-05T18:59:46.239Z,17.20
2019-04-05T19:02:16.223Z,18.03
2019-04-05T19:04:46.170Z,19.27
2019-04-05T19:07:16.152Z,14.30
2019-04-05T19:09:46.126Z,22.00
2019-04-05T19:12:16.149Z,16.90
2019-04-05T19:14:46.109Z,17.33
2019-04-05T19:17:23.702Z,18.80
2019-04-05T19:19:47.650Z,22.27
2019-04-05T19:22:17.622Z,22.27
2019-04-05T19:24:47.575Z,22.50
2019-04-05T19:27:17.556Z,23.20
2019-04-05T19:29:47.502Z,22.47
2019-04-05T19:49:58.807Z,25.00
2019-04-05T19:52:28.798Z,28.07
2019-04-05T19:54:58.753Z,24.80
2019-04-05T19:57:28.730Z,22.37
2019-04-05T19:59:58.682Z,24.13
2019-04-05T20:02:28.653Z,28.33
2019-04-05T20:04:58.607Z,22.97
2019-04-05T20:07:28.577Z,29.87
2019-04-05T20:09:58.537Z,25.50
2019-04-05T20:12:28.507Z,27.80
2019-04-05T20:14:58.523Z,28.67
2019-04-05T20:17:28.575Z,25.03
2019-04-05T20:19:58.527Z,28.20
2019-04-05T20:22:28.501Z,27.63
2019-04-05T20:24:58.527Z,26.60
2019-04-05T20:27:28.506Z,27.27
2019-04-05T20:29:58.462Z,30.17
2019-04-05T20:32:28.441Z,26.70
2019-04-05T20:34:58.463Z,34.63
2019-04-05T20:37:28.462Z,26.70
2019-04-05T20:39:58.456Z,29.10
2019-04-05T20:42:28.440Z,32.57
2019-04-05T20:44:58.481Z,32.50
2019-04-05T20:47:28.430Z,29.67
2019-04-05T20:49:58.427Z,31.10
2019-04-05T20:52:28.514Z,27.37
2019-04-05T20:54:58.488Z,26.13
2019-04-05T20:57:28.445Z,27.67
2019-04-05T20:59:58.499Z,37.93
2019-04-05T21:02:28.454Z,29.90
2019-04-05T21:04:58.430Z,29.70
2019-04-05T21:07:28.490Z,32.00
2019-04-05T21:09:58.462Z,29.00
2019-04-05T21:12:28.423Z,45.93
2019-04-05T21:14:58.405Z,38.50
2019-04-05T21:17:28.362Z,27.53
2019-04-05T21:19:58.334Z,29.63
2019-04-05T21:22:28.298Z,26.83
2019-04-05T21:24:59.450Z,35.33
2019-04-05T21:27:29.576Z,33.40
2019-04-05T21:29:59.547Z,30.00
2019-04-05T21:32:29.507Z,32.47
2019-04-05T21:34:59.482Z,31.00
2019-04-05T21:37:29.442Z,29.77
2019-04-05T21:39:59.413Z,30.60
2019-04-05T21:42:29.371Z,30.80
2019-04-05T21:44:59.509Z,33.67
2019-04-05T21:47:29.533Z,28.17
2019-04-05T21:49:59.506Z,35.50
2019-04-05T21:52:29.459Z,30.73
2019-04-05T21:54:59.435Z,35.77
2019-04-05T21:57:29.386Z,33.10
2019-04-05T21:59:59.370Z,33.47
2019-04-05T22:02:30.557Z,31.53
2019-04-05T22:05:01.359Z,30.33
2019-04-05T22:07:32.462Z,35.93
2019-04-05T22:10:02.442Z,31.30
2019-04-05T22:12:32.566Z,27.77
2019-04-05T22:15:02.612Z,31.40
2019-04-05T22:17:32.547Z,31.83
2019-04-05T22:20:02.514Z,33.03
2019-04-05T22:22:32.465Z,31.50
2019-04-05T22:25:02.451Z,28.03
2019-04-05T22:27:32.566Z,30.73
2019-04-05T22:30:02.534Z,27.40
2019-04-05T22:32:32.481Z,29.00
2019-04-05T22:35:02.441Z,32.93
2019-04-05T22:37:32.410Z,26.67
2019-04-05T22:40:02.378Z,28.50
2019-04-05T22:42:32.461Z,27.87
2019-04-05T22:45:03.807Z,24.60
2019-04-05T22:47:35.290Z,29.33
2019-04-05T22:50:08.806Z,24.60
2019-04-05T22:52:38.750Z,29.43
2019-04-05T22:55:11.474Z,25.23
2019-04-05T22:57:40.291Z,25.20
2019-04-05T23:00:10.602Z,25.57
2019-04-05T23:02:42.145Z,26.53
2019-04-05T23:05:12.181Z,28.77
2019-04-05T23:07:42.155Z,28.90
2019-04-05T23:10:12.575Z,26.60
2019-04-05T23:12:42.489Z,26.80
2019-04-05T23:15:12.694Z,27.83
2019-04-05T23:17:42.637Z,26.37
2019-04-05T23:20:13.007Z,25.67
2019-04-05T23:22:42.956Z,28.93
2019-04-05T23:25:21.525Z,28.93
2019-04-05T23:27:44.741Z,26.47
2019-04-05T23:30:14.953Z,29.73
2019-04-05T23:32:44.898Z,30.07
2019-04-05T23:35:14.933Z,24.97
2019-04-05T23:37:44.921Z,28.10
2019-04-05T23:40:14.979Z,26.87
2019-04-05T23:42:44.929Z,26.27
2019-04-05T23:45:14.970Z,25.73
2019-04-05T23:47:44.910Z,28.50
2019-04-05T23:50:14.942Z,25.73
2019-04-05T23:52:44.885Z,26.00
2019-04-05T23:55:14.855Z,28.17
2019-04-05T23:57:44.802Z,27.30
